Time;durP1;ratioP1;P1;durP2;ratioP2;P2;SDS_P1;SDS_P2;PMS_P1;PMS_P2;Temp;Humidity;BMP_temperature;BMP_pressure;BME280_temperature;BME280_humidity;BME280_pressure;Samples;Min_cycle;Max_cycle;Signal;HPM_P1;HPM_P2
2021/09/04 00:00:41;;;;;;;22.63;9.52;;;;;;;;;;5050579;28;20561;-83
2021/09/04 00:03:09;;;;;;;29.77;9.82;;;;;;;;;;5058259;28;20135;-83
2021/09/04 00:05:36;;;;;;;25.48;9.55;;;;;;;;;;5032769;28;20440;-83
2021/09/04 00:08:04;;;;;;;25.38;9.75;;;;;;;;;;5050601;28;20076;-83
2021/09/04 00:10:32;;;;;;;36.95;10.05;;;;;;;;;;5049355;28;20084;-83
2021/09/04 00:12:59;;;;;;;26.30;9.30;;;;;;;;;;5031669;28;20131;-83
2021/09/04 00:15:26;;;;;;;26.30;9.55;;;;;;;;;;5049665;28;20498;-83
2021/09/04 00:17:54;;;;;;;24.42;9.63;;;;;;;;;;5050750;28;20084;-83
2021/09/04 00:20:21;;;;;;;31.27;10.50;;;;;;;;;;5040590;28;20124;-83
2021/09/04 00:22:48;;;;;;;26.58;10.20;;;;;;;;;;5034411;28;20144;-83
2021/09/04 00:25:15;;;;;;;23.55;9.52;;;;;;;;;;5032367;28;20084;-82
2021/09/04 00:27:43;;;;;;;28.38;10.02;;;;;;;;;;5048685;28;20745;-81
2021/09/04 00:30:15;;;;;;;29.48;9.00;;;;;;;;;;5053025;28;20362;-81
2021/09/04 00:32:42;;;;;;;30.00;10.18;;;;;;;;;;5050841;28;20132;-82
2021/09/04 00:35:13;;;;;;;31.15;8.63;;;;;;;;;;5052691;28;20128;-83
2021/09/04 00:37:40;;;;;;;32.15;9.15;;;;;;;;;;5053611;28;20053;-83
2021/09/04 00:40:07;;;;;;;24.85;10.23;;;;;;;;;;5036347;28;20140;-83
2021/09/04 00:42:35;;;;;;;30.13;9.93;;;;;;;;;;5046927;28;20140;-82
2021/09/04 00:45:02;;;;;;;24.50;9.25;;;;;;;;;;5034312;28;20141;-83
2021/09/04 00:47:30;;;;;;;26.88;8.85;;;;;;;;;;5050698;28;20041;-82
2021/09/04 00:49:57;;;;;;;34.90;10.18;;;;;;;;;;5070354;28;20043;-83
2021/09/04 00:52:24;;;;;;;25.83;10.48;;;;;;;;;;5053533;28;20096;-83
2021/09/04 00:54:51;;;;;;;37.30;9.57;;;;;;;;;;5053686;28;20131;-83
2021/09/04 00:57:19;;;;;;;29.02;9.18;;;;;;;;;;5038599;28;20053;-83
2021/09/04 00:59:46;;;;;;;28.00;10.30;;;;;;;;;;5038014;28;20120;-83
2021/09/04 01:02:16;;;;;;;37.08;9.63;;;;;;;;;;5057061;28;20102;-83
2021/09/04 01:04:44;;;;;;;28.77;10.48;;;;;;;;;;5057670;28;20111;-83
2021/09/04 01:10:06;;;;;;;30.83;9.55;;;;;;;;;;5004911;28;20148;-78
2021/09/04 01:12:34;;;;;;;28.63;9.55;;;;;;;;;;5004571;28;20141;-78
2021/09/04 01:15:01;;;;;;;26.90;9.60;;;;;;;;;;4997695;28;20141;-78
2021/09/04 01:17:29;;;;;;;28.25;9.77;;;;;;;;;;5004647;28;20054;-78
2021/09/04 01:19:56;;;;;;;32.10;11.05;;;;;;;;;;4991446;28;20089;-78
2021/09/04 01:22:23;;;;;;;30.27;10.40;;;;;;;;;;5004802;28;20480;-78
2021/09/04 01:24:51;;;;;;;31.33;10.25;;;;;;;;;;4989098;28;20168;-78
2021/09/04 01:27:19;;;;;;;26.80;10.10;;;;;;;;;;4990448;28;20057;-78
2021/09/04 01:29:46;;;;;;;24.15;9.02;;;;;;;;;;4977858;28;20128;-78
2021/09/04 01:32:14;;;;;;;24.48;9.30;;;;;;;;;;5002338;28;20164;-78
2021/09/04 01:34:41;;;;;;;43.05;10.55;;;;;;;;;;5005034;28;20597;-78
2021/09/04 01:37:08;;;;;;;33.30;10.90;;;;;;;;;;4998441;28;20507;-78
2021/09/04 01:39:35;;;;;;;30.00;8.95;;;;;;;;;;5004473;28;20132;-78
2021/09/04 01:42:02;;;;;;;30.77;9.70;;;;;;;;;;5003667;28;21804;-78
2021/09/04 01:44:29;;;;;;;32.78;8.57;;;;;;;;;;4995293;28;20050;-78
2021/09/04 01:46:56;;;;;;;23.23;8.88;;;;;;;;;;4990876;28;20070;-78
2021/09/04 01:49:24;;;;;;;32.65;8.80;;;;;;;;;;4986602;28;20117;-78
2021/09/04 01:51:51;;;;;;;23.88;8.85;;;;;;;;;;5006964;28;20821;-78
2021/09/04 01:54:18;;;;;;;33.97;9.07;;;;;;;;;;4996489;28;20141;-78
2021/09/04 01:56:45;;;;;;;23.85;8.65;;;;;;;;;;4999052;28;20046;-78
2021/09/04 01:59:13;;;;;;;52.05;11.63;;;;;;;;;;5003946;28;20129;-78
2021/09/04 02:01:40;;;;;;;22.58;8.82;;;;;;;;;;5004317;28;20517;-78
2021/09/04 02:04:08;;;;;;;23.52;8.27;;;;;;;;;;4997631;28;20172;-78
2021/09/04 02:06:35;;;;;;;23.90;8.43;;;;;;;;;;4993002;28;20075;-78
2021/09/04 02:09:02;;;;;;;23.42;8.32;;;;;;;;;;4994945;28;20153;-77
2021/09/04 02:11:29;;;;;;;23.88;8.23;;;;;;;;;;4990010;28;20064;-77
2021/09/04 02:13:56;;;;;;;25.73;8.93;;;;;;;;;;5007602;28;20081;-77
2021/09/04 02:16:23;;;;;;;27.52;8.88;;;;;;;;;;5006361;28;20125;-77
2021/09/04 02:18:51;;;;;;;24.55;8.00;;;;;;;;;;4997399;28;20046;-77
2021/09/04 02:21:18;;;;;;;28.48;8.68;;;;;;;;;;4999670;28;20054;-77
2021/09/04 02:23:46;;;;;;;26.23;8.23;;;;;;;;;;4994206;28;20054;-78
2021/09/04 02:26:13;;;;;;;31.67;8.77;;;;;;;;;;5005555;28;20127;-80
2021/09/04 02:28:40;;;;;;;31.25;8.35;;;;;;;;;;4997011;28;20070;-77
2021/09/04 02:31:07;;;;;;;30.25;8.30;;;;;;;;;;4997703;28;20045;-77
2021/09/04 02:33:34;;;;;;;27.40;8.02;;;;;;;;;;5004392;28;20073;-78
2021/09/04 02:36:02;;;;;;;32.38;8.57;;;;;;;;;;4999530;28;20177;-78
2021/09/04 02:38:29;;;;;;;24.95;8.38;;;;;;;;;;5000360;28;20068;-79
2021/09/04 02:40:56;;;;;;;26.35;8.15;;;;;;;;;;5001369;28;20093;-77
2021/09/04 02:43:23;;;;;;;27.67;9.20;;;;;;;;;;4996909;28;20046;-78
2021/09/04 02:45:50;;;;;;;17.98;7.35;;;;;;;;;;5005219;28;20042;-77
2021/09/04 02:48:17;;;;;;;25.60;8.27;;;;;;;;;;4986734;28;20100;-77
2021/09/04 02:50:44;;;;;;;27.65;7.88;;;;;;;;;;4982083;28;20073;-77
2021/09/04 02:53:12;;;;;;;22.63;7.07;;;;;;;;;;4996982;28;20518;-77
2021/09/04 02:55:39;;;;;;;18.50;6.65;;;;;;;;;;5006005;28;20113;-77
2021/09/04 02:58:06;;;;;;;28.55;7.70;;;;;;;;;;4980470;28;20058;-77
2021/09/04 03:00:33;;;;;;;23.10;6.88;;;;;;;;;;5004360;28;20060;-77
2021/09/04 03:03:00;;;;;;;27.05;7.72;;;;;;;;;;4989451;28;20073;-77
2021/09/04 03:05:28;;;;;;;21.33;6.50;;;;;;;;;;5000157;28;20132;-77
2021/09/04 03:07:55;;;;;;;19.70;7.28;;;;;;;;;;4993091;28;20109;-77
2021/09/04 03:10:22;;;;;;;21.08;7.68;;;;;;;;;;4997674;28;20125;-77
2021/09/04 03:12:49;;;;;;;23.58;6.82;;;;;;;;;;4987871;28;20058;-77
2021/09/04 03:15:16;;;;;;;22.15;8.35;;;;;;;;;;4999286;28;20077;-77
2021/09/04 03:17:44;;;;;;;21.23;6.82;;;;;;;;;;5002618;28;20617;-77
2021/09/04 03:20:11;;;;;;;24.45;6.95;;;;;;;;;;4990789;28;20084;-77
2021/09/04 03:25:32;;;;;;;28.85;7.57;;;;;;;;;;4963253;28;20158;-82
2021/09/04 03:27:59;;;;;;;20.35;7.75;;;;;;;;;;4953991;28;20464;-82
2021/09/04 03:30:26;;;;;;;24.58;7.65;;;;;;;;;;4972471;28;20078;-83
2021/09/04 03:32:54;;;;;;;20.42;7.80;;;;;;;;;;4972055;28;20082;-82
2021/09/04 03:35:21;;;;;;;22.88;7.57;;;;;;;;;;4970694;28;20046;-83
2021/09/04 03:37:48;;;;;;;25.48;7.80;;;;;;;;;;4954894;28;20078;-82
2021/09/04 03:40:18;;;;;;;22.15;7.50;;;;;;;;;;4971589;28;20428;-83
2021/09/04 03:42:47;;;;;;;25.65;7.30;;;;;;;;;;4972354;28;20137;-83
2021/09/04 03:45:16;;;;;;;30.63;7.38;;;;;;;;;;4971100;28;20153;-82
2021/09/04 03:47:43;;;;;;;32.88;8.45;;;;;;;;;;4969715;28;20042;-82
2021/09/04 03:50:10;;;;;;;24.10;7.22;;;;;;;;;;4964243;28;20476;-82
2021/09/04 03:52:37;;;;;;;23.70;7.57;;;;;;;;;;4972161;28;20137;-82
2021/09/04 03:55:05;;;;;;;26.27;6.78;;;;;;;;;;4977208;28;20066;-82
2021/09/04 03:57:33;;;;;;;27.00;7.82;;;;;;;;;;4975141;28;20114;-82
2021/09/04 04:00:04;;;;;;;17.88;6.78;;;;;;;;;;4958926;28;20086;-82
2021/09/04 04:02:31;;;;;;;19.02;7.40;;;;;;;;;;4975672;28;20051;-82
2021/09/04 04:04:59;;;;;;;27.95;8.15;;;;;;;;;;4967836;28;20078;-82
2021/09/04 04:07:27;;;;;;;29.67;7.75;;;;;;;;;;4958794;28;20050;-83
2021/09/04 04:09:54;;;;;;;21.75;7.72;;;;;;;;;;4958397;28;20089;-83
2021/09/04 04:12:21;;;;;;;19.80;7.47;;;;;;;;;;4958476;28;20081;-82
2021/09/04 04:14:52;;;;;;;24.48;7.53;;;;;;;;;;4957936;28;20130;-83
2021/09/04 04:17:23;;;;;;;25.08;7.50;;;;;;;;;;4974064;28;20057;-83
2021/09/04 04:19:50;;;;;;;27.73;7.63;;;;;;;;;;4974428;28;20053;-83
2021/09/04 04:22:20;;;;;;;21.42;7.53;;;;;;;;;;4974839;28;20062;-82
2021/09/04 04:24:47;;;;;;;27.10;9.25;;;;;;;;;;4993362;28;20082;-83
2021/09/04 04:27:14;;;;;;;30.10;8.02;;;;;;;;;;4989295;28;20051;-82
2021/09/04 04:29:41;;;;;;;28.48;8.60;;;;;;;;;;4993515;28;20252;-82
2021/09/04 04:32:09;;;;;;;26.48;9.07;;;;;;;;;;4995585;28;20047;-83
2021/09/04 04:34:36;;;;;;;20.80;8.05;;;;;;;;;;4969535;28;20828;-83
2021/09/04 04:37:03;;;;;;;27.38;8.40;;;;;;;;;;4994922;28;20125;-83
2021/09/04 04:39:31;;;;;;;20.92;8.27;;;;;;;;;;4989881;28;20082;-83
2021/09/04 04:42:00;;;;;;;22.90;7.88;;;;;;;;;;4984872;28;20057;-83
2021/09/04 04:44:27;;;;;;;27.02;8.10;;;;;;;;;;4975139;28;20079;-82
2021/09/04 04:46:55;;;;;;;26.27;7.88;;;;;;;;;;4964754;28;20144;-82
2021/09/04 04:49:23;;;;;;;21.83;8.25;;;;;;;;;;4987500;28;20129;-82
2021/09/04 04:51:50;;;;;;;20.90;8.15;;;;;;;;;;4990593;28;20082;-83
2021/09/04 04:54:17;;;;;;;18.05;7.30;;;;;;;;;;4997629;28;20173;-83
2021/09/04 04:56:49;;;;;;;25.92;8.00;;;;;;;;;;4975590;28;20093;-82
2021/09/04 04:59:16;;;;;;;25.40;8.23;;;;;;;;;;4993269;28;20134;-82
2021/09/04 05:01:44;;;;;;;24.38;8.25;;;;;;;;;;4993056;28;20053;-83
2021/09/04 05:04:12;;;;;;;23.38;7.75;;;;;;;;;;4983842;28;20043;-82
2021/09/04 05:06:43;;;;;;;23.10;7.43;;;;;;;;;;4983424;28;20047;-83
2021/09/04 05:09:12;;;;;;;28.65;8.43;;;;;;;;;;4991239;28;20137;-83
2021/09/04 05:11:41;;;;;;;32.10;8.35;;;;;;;;;;4974239;28;20141;-83
2021/09/04 05:14:09;;;;;;;20.08;7.60;;;;;;;;;;4988976;28;20791;-83
2021/09/04 05:16:37;;;;;;;26.42;7.18;;;;;;;;;;4965234;28;20062;-83
2021/09/04 05:19:06;;;;;;;20.85;7.10;;;;;;;;;;4981444;28;20054;-83
2021/09/04 05:21:34;;;;;;;27.08;7.38;;;;;;;;;;4988010;28;20054;-83
2021/09/04 05:24:01;;;;;;;21.17;7.22;;;;;;;;;;4980521;28;20456;-83
2021/09/04 05:26:30;;;;;;;23.58;7.50;;;;;;;;;;4967500;28;20129;-83
2021/09/04 05:28:57;;;;;;;22.60;7.95;;;;;;;;;;4974621;28;20129;-83
2021/09/04 05:31:24;;;;;;;32.72;11.38;;;;;;;;;;4980576;28;20070;-83
2021/09/04 05:33:53;;;;;;;25.98;9.73;;;;;;;;;;4977145;28;20454;-83
2021/09/04 05:36:20;;;;;;;37.78;12.38;;;;;;;;;;4995056;28;20747;-84
2021/09/04 05:38:50;;;;;;;24.13;11.75;;;;;;;;;;4976135;28;20052;-83
2021/09/04 05:41:17;;;;;;;22.48;10.27;;;;;;;;;;4976192;28;20104;-83
2021/09/04 05:43:44;;;;;;;23.42;7.57;;;;;;;;;;4971185;28;20567;-83
2021/09/04 05:46:11;;;;;;;15.13;7.18;;;;;;;;;;4973240;28;20053;-84
2021/09/04 05:48:38;;;;;;;23.38;7.13;;;;;;;;;;4988130;28;20042;-84
2021/09/04 05:51:06;;;;;;;12.50;5.95;;;;;;;;;;4990811;28;20052;-83
2021/09/04 05:53:33;;;;;;;20.25;6.47;;;;;;;;;;4989447;28;20047;-83
2021/09/04 05:56:01;;;;;;;15.00;6.00;;;;;;;;;;4992911;28;20394;-84
2021/09/04 05:58:28;;;;;;;20.67;5.93;;;;;;;;;;4992820;28;20137;-85
2021/09/04 06:00:55;;;;;;;17.10;5.90;;;;;;;;;;4972655;28;20093;-84
2021/09/04 06:03:23;;;;;;;16.88;5.93;;;;;;;;;;4991550;28;20051;-84
2021/09/04 06:05:56;;;;;;;16.95;5.13;;;;;;;;;;4994539;28;20703;-83
2021/09/04 06:08:25;;;;;;;19.80;5.55;;;;;;;;;;4988100;28;20129;-82
2021/09/04 06:10:52;;;;;;;18.33;5.50;;;;;;;;;;4987960;28;20436;-81
2021/09/04 06:13:20;;;;;;;21.30;6.38;;;;;;;;;;4987197;28;20051;-80
2021/09/04 06:15:47;;;;;;;15.73;5.57;;;;;;;;;;4970799;28;20128;-82
2021/09/04 06:18:14;;;;;;;17.65;5.40;;;;;;;;;;4977612;28;20061;-80
2021/09/04 06:20:42;;;;;;;18.55;5.85;;;;;;;;;;4989116;28;20137;-77
2021/09/04 06:23:09;;;;;;;12.90;5.32;;;;;;;;;;4975996;28;20758;-77
2021/09/04 06:25:38;;;;;;;20.63;6.00;;;;;;;;;;4964319;28;20084;-77
2021/09/04 06:28:05;;;;;;;25.58;5.78;;;;;;;;;;4972304;28;20050;-82
2021/09/04 06:30:32;;;;;;;30.58;6.00;;;;;;;;;;4981927;28;20399;-84
2021/09/04 06:33:01;;;;;;;19.92;6.25;;;;;;;;;;4978242;28;20522;-83
2021/09/04 06:35:29;;;;;;;12.85;5.50;;;;;;;;;;4963842;28;20077;-80
2021/09/04 06:37:56;;;;;;;17.70;6.07;;;;;;;;;;4974462;28;20086;-78
2021/09/04 06:40:23;;;;;;;23.48;6.38;;;;;;;;;;4984539;28;20049;-78
2021/09/04 06:42:50;;;;;;;15.13;5.43;;;;;;;;;;4974559;28;20146;-77
2021/09/04 06:45:17;;;;;;;13.77;6.63;;;;;;;;;;4976959;28;20133;-78
2021/09/04 06:47:45;;;;;;;14.80;4.82;;;;;;;;;;4965190;28;20093;-79
2021/09/04 06:50:12;;;;;;;20.20;5.80;;;;;;;;;;4984695;28;20039;-77
2021/09/04 06:52:41;;;;;;;19.92;5.75;;;;;;;;;;4978635;28;20078;-77
2021/09/04 06:55:09;;;;;;;17.02;5.40;;;;;;;;;;4964649;28;20094;-77
2021/09/04 06:57:37;;;;;;;20.98;5.93;;;;;;;;;;4976864;28;20051;-76
2021/09/04 07:00:05;;;;;;;17.58;5.35;;;;;;;;;;4982117;28;20096;-77
2021/09/04 07:02:35;;;;;;;17.50;5.40;;;;;;;;;;4982160;28;20046;-79
2021/09/04 07:05:04;;;;;;;16.77;5.63;;;;;;;;;;4980620;28;20054;-79
2021/09/04 07:07:31;;;;;;;20.60;5.00;;;;;;;;;;4980800;28;20142;-79
2021/09/04 07:10:00;;;;;;;14.68;5.25;;;;;;;;;;4987920;28;20109;-79
2021/09/04 07:12:27;;;;;;;15.93;4.95;;;;;;;;;;4980710;28;20050;-78
2021/09/04 07:14:54;;;;;;;13.55;4.90;;;;;;;;;;4968843;28;20502;-78
2021/09/04 07:17:22;;;;;;;18.92;5.28;;;;;;;;;;4978057;28;20142;-77
2021/09/04 07:19:49;;;;;;;19.73;5.40;;;;;;;;;;4975947;28;20113;-78
2021/09/04 07:22:16;;;;;;;13.68;5.43;;;;;;;;;;4980608;28;20093;-77
2021/09/04 07:24:43;;;;;;;13.52;4.25;;;;;;;;;;4977958;28;20205;-78
2021/09/04 07:27:18;;;;;;;15.13;4.63;;;;;;;;;;4982112;28;20474;-79
2021/09/04 07:29:45;;;;;;;18.70;4.85;;;;;;;;;;4987921;28;20047;-79
2021/09/04 07:32:14;;;;;;;15.18;4.78;;;;;;;;;;4987968;28;20136;-79
2021/09/04 07:34:41;;;;;;;13.88;4.38;;;;;;;;;;4993112;28;20057;-80
2021/09/04 07:37:08;;;;;;;12.90;4.60;;;;;;;;;;4998531;28;20077;-81
2021/09/04 07:39:36;;;;;;;22.63;5.40;;;;;;;;;;4996692;28;20134;-80
2021/09/04 07:42:06;;;;;;;12.63;4.35;;;;;;;;;;4992152;28;20074;-79
2021/09/04 07:44:33;;;;;;;14.75;5.07;;;;;;;;;;4985232;28;20074;-75
2021/09/04 07:47:00;;;;;;;16.80;4.60;;;;;;;;;;4981794;28;20053;-76
2021/09/04 07:49:29;;;;;;;15.35;4.75;;;;;;;;;;4986998;28;20141;-76
2021/09/04 07:51:56;;;;;;;24.13;5.28;;;;;;;;;;4973549;28;20145;-78
2021/09/04 07:54:24;;;;;;;16.58;3.83;;;;;;;;;;4981436;28;20058;-78
2021/09/04 07:56:51;;;;;;;14.50;4.43;;;;;;;;;;4974060;28;20081;-77
2021/09/04 07:59:18;;;;;;;14.07;4.00;;;;;;;;;;4986681;28;20141;-78
2021/09/04 08:01:45;;;;;;;16.27;4.68;;;;;;;;;;4966568;28;21053;-78
2021/09/04 08:04:14;;;;;;;17.10;5.32;;;;;;;;;;4972419;28;20098;-78
2021/09/04 08:06:41;;;;;;;14.93;3.83;;;;;;;;;;4986793;28;20052;-78
2021/09/04 08:09:08;;;;;;;20.67;4.38;;;;;;;;;;4984971;28;20108;-78
2021/09/04 08:11:37;;;;;;;13.02;4.55;;;;;;;;;;4983705;28;20117;-78
2021/09/04 08:14:04;;;;;;;14.40;4.13;;;;;;;;;;4981588;28;20133;-78
2021/09/04 08:16:31;;;;;;;14.20;4.55;;;;;;;;;;4985003;28;20081;-78
2021/09/04 08:18:58;;;;;;;13.88;4.18;;;;;;;;;;4984395;28;20061;-78
2021/09/04 08:21:25;;;;;;;12.13;4.47;;;;;;;;;;4974839;28;20755;-78
2021/09/04 08:23:52;;;;;;;17.55;4.30;;;;;;;;;;4984753;28;20089;-78
2021/09/04 08:26:20;;;;;;;15.40;5.35;;;;;;;;;;4984643;28;20537;-78
2021/09/04 08:28:47;;;;;;;16.17;4.78;;;;;;;;;;4987720;28;20136;-78
2021/09/04 08:31:16;;;;;;;8.60;4.43;;;;;;;;;;4976664;28;20129;-78
2021/09/04 08:33:43;;;;;;;11.52;4.78;;;;;;;;;;4988197;28;20046;-78
2021/09/04 08:36:11;;;;;;;14.80;4.80;;;;;;;;;;4980651;28;20512;-78
2021/09/04 08:38:38;;;;;;;11.10;3.95;;;;;;;;;;4962603;28;20121;-78
2021/09/04 08:41:06;;;;;;;21.58;4.18;;;;;;;;;;4967180;28;20078;-78
2021/09/04 08:43:33;;;;;;;8.95;4.57;;;;;;;;;;4969427;28;20081;-79
2021/09/04 08:46:02;;;;;;;20.95;4.65;;;;;;;;;;4983192;28;20070;-78
2021/09/04 08:48:29;;;;;;;13.35;4.32;;;;;;;;;;4978642;28;20542;-78
2021/09/04 08:50:56;;;;;;;13.27;4.43;;;;;;;;;;4983687;28;20166;-78
2021/09/04 08:53:26;;;;;;;9.45;4.20;;;;;;;;;;4980913;28;20475;-78
2021/09/04 08:55:54;;;;;;;14.32;5.75;;;;;;;;;;4968156;28;20046;-78
2021/09/04 08:58:21;;;;;;;17.65;4.97;;;;;;;;;;4977571;28;20074;-78
2021/09/04 09:00:48;;;;;;;8.85;4.00;;;;;;;;;;4964178;28;20510;-78
2021/09/04 09:03:24;;;;;;;16.17;4.85;;;;;;;;;;4979459;28;20077;-78
2021/09/04 09:05:54;;;;;;;18.80;4.88;;;;;;;;;;4966045;28;20062;-78
2021/09/04 09:08:22;;;;;;;16.45;5.25;;;;;;;;;;4971338;28;20130;-78
2021/09/04 09:10:52;;;;;;;15.85;5.40;;;;;;;;;;4975572;28;20050;-79
2021/09/04 09:13:20;;;;;;;15.05;5.53;;;;;;;;;;4973125;28;20066;-78
2021/09/04 09:15:54;;;;;;;16.30;5.75;;;;;;;;;;4974705;28;20057;-78
2021/09/04 09:18:24;;;;;;;16.05;6.15;;;;;;;;;;4987028;28;20109;-78
2021/09/04 09:21:00;;;;;;;20.60;5.70;;;;;;;;;;4972410;28;20083;-78
2021/09/04 09:23:27;;;;;;;;;;;;;;;;;;4973921;28;20042;-78
2021/09/04 09:25:54;;;;;;;21.27;5.50;;;;;;;;;;4978012;28;20016;-78
2021/09/04 09:28:24;;;;;;;15.48;5.72;;;;;;;;;;4978983;28;20148;-78
2021/09/04 09:30:55;;;;;;;16.00;5.40;;;;;;;;;;4967947;28;20122;-78
2021/09/04 09:33:24;;;;;;;19.67;5.50;;;;;;;;;;4981573;28;20740;-78
2021/09/04 09:35:53;;;;;;;19.70;5.70;;;;;;;;;;4994951;28;20097;-78
2021/09/04 09:38:22;;;;;;;16.58;4.60;;;;;;;;;;4973777;28;20444;-78
2021/09/04 09:40:50;;;;;;;20.15;4.97;;;;;;;;;;4970814;28;20106;-78
2021/09/04 09:43:22;;;;;;;16.65;5.10;;;;;;;;;;4982088;28;20077;-78
2021/09/04 09:45:51;;;;;;;15.73;4.57;;;;;;;;;;4971927;28;20053;-78
2021/09/04 09:48:19;;;;;;;17.60;3.88;;;;;;;;;;4985783;28;20054;-78
2021/09/04 09:50:47;;;;;;;16.88;4.95;;;;;;;;;;4977118;28;20133;-78
2021/09/04 09:53:14;;;;;;;17.88;4.60;;;;;;;;;;4982294;28;20090;-79
2021/09/04 09:55:44;;;;;;;9.70;4.70;;;;;;;;;;4990279;28;20050;-78
2021/09/04 09:58:11;;;;;;;19.85;4.93;;;;;;;;;;4982378;28;20133;-78
2021/09/04 10:00:39;;;;;;;15.52;5.50;;;;;;;;;;4972102;28;20074;-78
2021/09/04 10:03:08;;;;;;;17.25;5.57;;;;;;;;;;4979746;28;20111;-79
2021/09/04 10:05:36;;;;;;;21.73;4.72;;;;;;;;;;4973601;28;20050;-78
2021/09/04 10:08:05;;;;;;;17.35;5.28;;;;;;;;;;4986990;28;20039;-79
2021/09/04 10:10:33;;;;;;;13.48;3.92;;;;;;;;;;4976186;28;20050;-79
2021/09/04 10:13:01;;;;;;;15.32;5.10;;;;;;;;;;4972949;28;20055;-79
2021/09/04 10:15:30;;;;;;;13.10;4.82;;;;;;;;;;4955424;28;20389;-79
2021/09/04 10:18:00;;;;;;;13.30;5.07;;;;;;;;;;4997665;28;20073;-78
2021/09/04 10:20:28;;;;;;;16.65;5.55;;;;;;;;;;4981625;28;20064;-78
2021/09/04 10:22:56;;;;;;;27.23;5.97;;;;;;;;;;4970287;28;20078;-78
2021/09/04 10:25:23;;;;;;;16.95;5.25;;;;;;;;;;4966396;28;20065;-78
2021/09/04 10:27:51;;;;;;;16.73;5.78;;;;;;;;;;4984799;28;20061;-78
2021/09/04 10:30:31;;;;;;;17.00;5.30;;;;;;;;;;4964468;28;20153;-79
2021/09/04 10:33:00;;;;;;;18.27;5.38;;;;;;;;;;4977157;28;20055;-79
2021/09/04 10:35:41;;;;;;;21.63;5.38;;;;;;;;;;4980375;28;20086;-79
2021/09/04 10:38:11;;;;;;;28.25;7.65;;;;;;;;;;4988563;28;20054;-79
2021/09/04 10:40:38;;;;;;;14.30;5.10;;;;;;;;;;4976107;28;20129;-79
2021/09/04 10:43:08;;;;;;;15.75;6.50;;;;;;;;;;4980477;28;20055;-78
2021/09/04 10:45:36;;;;;;;22.90;6.07;;;;;;;;;;4976681;28;20180;-79
2021/09/04 10:48:13;;;;;;;17.73;5.65;;;;;;;;;;4985770;28;20064;-79
2021/09/04 10:50:41;;;;;;;17.98;5.85;;;;;;;;;;4973040;28;20712;-79
2021/09/04 10:53:08;;;;;;;16.02;5.55;;;;;;;;;;4969396;28;20614;-79
2021/09/04 10:55:37;;;;;;;22.35;6.10;;;;;;;;;;4984528;28;20082;-79
2021/09/04 10:58:04;;;;;;;19.40;6.20;;;;;;;;;;4984776;28;20042;-78
2021/09/04 11:00:42;;;;;;;15.70;5.40;;;;;;;;;;4970032;28;20168;-79
2021/09/04 11:03:10;;;;;;;15.82;6.45;;;;;;;;;;4973973;28;20061;-79
2021/09/04 11:05:39;;;;;;;17.73;6.20;;;;;;;;;;4982681;28;20050;-79
2021/09/04 11:08:10;;;;;;;17.98;5.28;;;;;;;;;;4961346;28;20050;-80
2021/09/04 11:10:42;;;;;;;11.07;5.18;;;;;;;;;;4982750;28;20043;-79
2021/09/04 11:13:13;;;;;;;20.05;5.72;;;;;;;;;;4978385;28;20423;-78
2021/09/04 11:15:44;;;;;;;18.10;5.03;;;;;;;;;;4974835;28;20077;-79
2021/09/04 11:18:12;;;;;;;17.58;5.13;;;;;;;;;;4977156;28;20054;-79
2021/09/04 11:20:43;;;;;;;16.42;5.50;;;;;;;;;;4961363;28;20053;-78
2021/09/04 11:23:10;;;;;;;23.33;6.35;;;;;;;;;;4968566;28;20084;-80
2021/09/04 11:25:41;;;;;;;19.10;5.93;;;;;;;;;;4977388;28;20125;-80
2021/09/04 11:28:09;;;;;;;15.55;5.40;;;;;;;;;;4980528;28;20835;-79
2021/09/04 11:30:36;;;;;;;14.68;6.10;;;;;;;;;;4982370;28;20447;-80
2021/09/04 11:33:17;;;;;;;21.02;6.65;;;;;;;;;;4989035;28;20092;-80
2021/09/04 11:35:47;;;;;;;22.33;6.28;;;;;;;;;;4980338;28;20102;-80
2021/09/04 11:38:15;;;;;;;19.25;7.28;;;;;;;;;;4969837;28;20145;-79
2021/09/04 11:40:45;;;;;;;18.00;6.35;;;;;;;;;;4981846;28;20074;-79
2021/09/04 11:43:16;;;;;;;18.17;6.80;;;;;;;;;;4979765;28;20053;-79
2021/09/04 11:45:44;;;;;;;18.67;5.93;;;;;;;;;;4969476;28;20074;-79
2021/09/04 11:48:12;;;;;;;11.65;6.10;;;;;;;;;;4980846;28;20157;-79
2021/09/04 11:50:40;;;;;;;14.00;6.07;;;;;;;;;;4983755;28;20130;-80
2021/09/04 11:53:10;;;;;;;17.88;6.47;;;;;;;;;;4974072;28;20101;-80
2021/09/04 11:55:38;;;;;;;12.35;5.93;;;;;;;;;;4966334;28;20115;-80
2021/09/04 11:58:09;;;;;;;18.77;5.55;;;;;;;;;;4986595;28;20733;-80
2021/09/04 12:00:37;;;;;;;20.85;6.30;;;;;;;;;;4986161;28;20135;-81
2021/09/04 12:03:11;;;;;;;19.80;5.50;;;;;;;;;;4982986;28;20837;-80
2021/09/04 12:05:44;;;;;;;12.25;5.60;;;;;;;;;;4978809;28;20042;-79
2021/09/04 12:08:29;;;;;;;12.85;5.43;;;;;;;;;;4984014;28;20098;-80
2021/09/04 12:11:01;;;;;;;16.27;5.60;;;;;;;;;;4971916;28;20042;-80
2021/09/04 12:13:30;;;;;;;25.35;5.57;;;;;;;;;;4984539;28;20097;-80
2021/09/04 12:15:58;;;;;;;15.35;5.80;;;;;;;;;;4988421;28;20080;-80
2021/09/04 12:18:32;;;;;;;12.63;6.38;;;;;;;;;;4981426;28;20590;-80
2021/09/04 12:21:18;;;;;;;22.13;6.15;;;;;;;;;;4975770;28;20814;-80
2021/09/04 12:23:46;;;;;;;20.48;5.43;;;;;;;;;;4987937;28;20055;-80
2021/09/04 12:26:13;;;;;;;12.57;5.85;;;;;;;;;;4988919;28;20749;-80
2021/09/04 12:28:40;;;;;;;14.63;5.88;;;;;;;;;;4973909;28;20070;-79
2021/09/04 12:31:10;;;;;;;19.42;5.43;;;;;;;;;;4978845;28;20129;-79
2021/09/04 12:33:52;;;;;;;19.73;5.82;;;;;;;;;;4984773;28;20047;-80
2021/09/04 12:36:28;;;;;;;12.93;5.07;;;;;;;;;;4978734;28;20077;-80
2021/09/04 12:38:58;;;;;;;19.95;7.05;;;;;;;;;;4985455;28;20058;-80
2021/09/04 12:41:32;;;;;;;17.30;4.95;;;;;;;;;;4995594;28;20129;-80
2021/09/04 12:43:59;;;;;;;13.60;5.50;;;;;;;;;;4985900;28;20133;-80
2021/09/04 12:46:32;;;;;;;12.27;5.97;;;;;;;;;;4974040;28;20101;-79
2021/09/04 12:49:19;;;;;;;12.95;5.90;;;;;;;;;;4989295;28;20047;-79
2021/09/04 12:51:47;;;;;;;18.25;6.50;;;;;;;;;;4985853;28;20086;-79
2021/09/04 12:54:14;;;;;;;16.58;6.78;;;;;;;;;;4988647;28;20145;-79
2021/09/04 12:56:43;;;;;;;20.30;5.90;;;;;;;;;;4961738;28;20133;-79
2021/09/04 12:59:12;;;;;;;16.60;5.90;;;;;;;;;;4983917;28;20081;-79
2021/09/04 13:01:40;;;;;;;31.58;5.55;;;;;;;;;;4974157;28;20770;-79
2021/09/04 13:04:11;;;;;;;16.20;5.65;;;;;;;;;;4958861;28;20157;-79
2021/09/04 13:06:38;;;;;;;13.85;5.53;;;;;;;;;;4963840;28;20071;-79
2021/09/04 13:09:05;;;;;;;22.30;6.60;;;;;;;;;;4969445;28;20108;-79
2021/09/04 13:11:32;;;;;;;14.80;5.80;;;;;;;;;;4972118;28;20742;-80
2021/09/04 13:13:59;;;;;;;17.88;6.25;;;;;;;;;;4989015;28;20054;-79
2021/09/04 13:16:28;;;;;;;20.45;5.70;;;;;;;;;;4970860;28;20109;-79
2021/09/04 13:18:55;;;;;;;13.20;6.05;;;;;;;;;;4969307;28;20054;-81
2021/09/04 13:21:23;;;;;;;19.10;6.25;;;;;;;;;;4987538;28;20050;-80
2021/09/04 13:23:51;;;;;;;16.98;5.88;;;;;;;;;;4992436;28;20062;-80
2021/09/04 13:26:22;;;;;;;18.48;6.72;;;;;;;;;;4991812;28;20109;-81
2021/09/04 13:28:49;;;;;;;21.45;5.70;;;;;;;;;;4987407;28;20046;-80
2021/09/04 13:31:17;;;;;;;17.77;6.10;;;;;;;;;;4993627;28;20069;-79
2021/09/04 13:33:48;;;;;;;19.02;5.93;;;;;;;;;;4983383;28;20376;-79
2021/09/04 13:36:17;;;;;;;14.63;5.80;;;;;;;;;;4988289;28;20090;-79
2021/09/04 13:38:45;;;;;;;14.60;6.25;;;;;;;;;;4985662;28;20069;-80
2021/09/04 13:41:13;;;;;;;13.63;5.05;;;;;;;;;;4969902;28;20046;-79
2021/09/04 13:43:41;;;;;;;20.73;6.10;;;;;;;;;;4986777;28;20109;-79
2021/09/04 13:46:09;;;;;;;16.33;5.57;;;;;;;;;;4983340;28;20054;-79
2021/09/04 13:48:36;;;;;;;18.55;5.72;;;;;;;;;;4988172;28;20050;-80
2021/09/04 13:51:05;;;;;;;19.67;5.88;;;;;;;;;;4988503;28;20543;-80
2021/09/04 13:53:35;;;;;;;16.10;5.80;;;;;;;;;;4968866;28;20070;-80
2021/09/04 13:56:03;;;;;;;23.80;6.28;;;;;;;;;;4984524;28;21848;-79
2021/09/04 13:58:32;;;;;;;20.35;7.47;;;;;;;;;;4966916;28;20089;-80
2021/09/04 14:01:00;;;;;;;16.83;6.35;;;;;;;;;;4984351;28;20054;-79
2021/09/04 14:03:28;;;;;;;19.10;5.88;;;;;;;;;;4990213;28;20632;-79
2021/09/04 14:05:59;;;;;;;19.95;6.40;;;;;;;;;;4967459;28;20065;-79
2021/09/04 14:08:28;;;;;;;13.07;6.10;;;;;;;;;;4988877;28;20046;-80
2021/09/04 14:10:55;;;;;;;20.00;5.80;;;;;;;;;;4977694;28;20149;-80
2021/09/04 14:13:24;;;;;;;18.17;5.85;;;;;;;;;;4981313;28;20050;-79
2021/09/04 14:15:53;;;;;;;16.13;6.50;;;;;;;;;;4991120;28;20042;-80
2021/09/04 14:18:21;;;;;;;13.32;5.75;;;;;;;;;;4981668;28;20772;-79
2021/09/04 14:20:48;;;;;;;11.63;5.78;;;;;;;;;;4984964;28;20073;-79
2021/09/04 14:23:16;;;;;;;15.25;5.70;;;;;;;;;;4987348;28;20054;-79
2021/09/04 14:25:49;;;;;;;15.00;6.05;;;;;;;;;;4982091;28;20054;-79
2021/09/04 14:28:20;;;;;;;19.58;6.15;;;;;;;;;;4982772;28;20054;-80
2021/09/04 14:30:49;;;;;;;21.50;6.45;;;;;;;;;;4989925;28;20053;-80
2021/09/04 14:33:16;;;;;;;16.30;5.68;;;;;;;;;;4991690;28;20046;-79
2021/09/04 14:35:44;;;;;;;15.75;6.00;;;;;;;;;;4971559;28;20054;-79
2021/09/04 14:38:13;;;;;;;14.70;6.57;;;;;;;;;;4990528;28;20082;-79
2021/09/04 14:40:42;;;;;;;21.17;5.50;;;;;;;;;;4984838;28;20128;-79